sensor_id;sensor_type;location;lat;lon;timestamp;temperature;humidity
25112;DHT22;13092;51.996;4.458;2022-11-20T00:01:09;0.60;99.90
25112;DHT22;13092;51.996;4.458;2022-11-20T00:03:37;0.60;99.90
25112;DHT22;13092;51.996;4.458;2022-11-20T00:06:08;0.60;99.90
25112;DHT22;13092;51.996;4.458;2022-11-20T00:08:36;0.60;99.90
25112;DHT22;13092;51.996;4.458;2022-11-20T00:11:04;0.70;99.90
25112;DHT22;13092;51.996;4.458;2022-11-20T00:13:39;0.70;99.90
25112;DHT22;13092;51.996;4.458;2022-11-20T00:16:11;0.70;99.90
25112;DHT22;13092;51.996;4.458;2022-11-20T00:18:39;0.60;99.90
25112;DHT22;13092;51.996;4.458;2022-11-20T00:21:11;0.60;99.90
25112;DHT22;13092;51.996;4.458;2022-11-20T00:23:40;0.60;99.90
25112;DHT22;13092;51.996;4.458;2022-11-20T00:26:09;0.60;99.90
25112;DHT22;13092;51.996;4.458;2022-11-20T00:28:38;0.60;99.90
25112;DHT22;13092;51.996;4.458;2022-11-20T00:31:11;0.70;99.90
25112;DHT22;13092;51.996;4.458;2022-11-20T00:33:39;0.70;99.90
25112;DHT22;13092;51.996;4.458;2022-11-20T00:36:09;0.70;99.90
25112;DHT22;13092;51.996;4.458;2022-11-20T00:38:38;0.70;99.90
25112;DHT22;13092;51.996;4.458;2022-11-20T00:41:08;0.60;99.90
25112;DHT22;13092;51.996;4.458;2022-11-20T00:43:36;0.60;99.90
25112;DHT22;13092;51.996;4.458;2022-11-20T00:46:06;0.50;99.90
25112;DHT22;13092;51.996;4.458;2022-11-20T00:48:36;0.50;99.90
25112;DHT22;13092;51.996;4.458;2022-11-20T00:51:04;0.50;99.90
25112;DHT22;13092;51.996;4.458;2022-11-20T00:53:32;0.50;99.90
25112;DHT22;13092;51.996;4.458;2022-11-20T00:56:02;0.50;99.90
25112;DHT22;13092;51.996;4.458;2022-11-20T00:58:31;0.50;99.90
25112;DHT22;13092;51.996;4.458;2022-11-20T01:01:00;0.50;99.90
25112;DHT22;13092;51.996;4.458;2022-11-20T01:03:31;0.50;99.90
25112;DHT22;13092;51.996;4.458;2022-11-20T01:06:05;0.50;99.90
25112;DHT22;13092;51.996;4.458;2022-11-20T01:08:34;0.50;99.90
25112;DHT22;13092;51.996;4.458;2022-11-20T01:11:06;0.40;99.90
25112;DHT22;13092;51.996;4.458;2022-11-20T01:13:34;0.40;99.90
25112;DHT22;13092;51.996;4.458;2022-11-20T01:16:08;0.40;99.90
25112;DHT22;13092;51.996;4.458;2022-11-20T01:18:37;0.40;99.90
25112;DHT22;13092;51.996;4.458;2022-11-20T01:21:09;0.20;99.90
25112;DHT22;13092;51.996;4.458;2022-11-20T01:23:39;0.20;99.90
25112;DHT22;13092;51.996;4.458;2022-11-20T01:26:09;0.20;99.90
25112;DHT22;13092;51.996;4.458;2022-11-20T01:28:37;0.30;99.90
25112;DHT22;13092;51.996;4.458;2022-11-20T01:31:11;0.30;99.90
25112;DHT22;13092;51.996;4.458;2022-11-20T01:33:40;0.30;99.90
25112;DHT22;13092;51.996;4.458;2022-11-20T01:36:10;0.30;99.90
25112;DHT22;13092;51.996;4.458;2022-11-20T01:38:38;0.40;99.90
25112;DHT22;13092;51.996;4.458;2022-11-20T01:41:07;0.40;99.90
25112;DHT22;13092;51.996;4.458;2022-11-20T01:43:36;0.40;99.90
25112;DHT22;13092;51.996;4.458;2022-11-20T01:46:14;0.40;99.90
25112;DHT22;13092;51.996;4.458;2022-11-20T01:48:47;0.40;99.90
25112;DHT22;13092;51.996;4.458;2022-11-20T01:51:22;0.40;99.90
25112;DHT22;13092;51.996;4.458;2022-11-20T01:53:53;0.40;99.90
25112;DHT22;13092;51.996;4.458;2022-11-20T01:56:22;0.40;99.90
25112;DHT22;13092;51.996;4.458;2022-11-20T01:58:53;0.40;99.90
25112;DHT22;13092;51.996;4.458;2022-11-20T02:01:22;0.40;99.90
25112;DHT22;13092;51.996;4.458;2022-11-20T02:03:50;0.40;99.90
25112;DHT22;13092;51.996;4.458;2022-11-20T02:06:23;0.40;99.90
25112;DHT22;13092;51.996;4.458;2022-11-20T02:08:52;0.40;99.90
25112;DHT22;13092;51.996;4.458;2022-11-20T02:11:21;0.30;99.90
25112;DHT22;13092;51.996;4.458;2022-11-20T02:13:49;0.40;99.90
25112;DHT22;13092;51.996;4.458;2022-11-20T02:16:21;0.40;99.90
25112;DHT22;13092;51.996;4.458;2022-11-20T02:18:51;0.30;99.90
25112;DHT22;13092;51.996;4.458;2022-11-20T02:21:27;0.30;99.90
25112;DHT22;13092;51.996;4.458;2022-11-20T02:24:03;0.30;99.90
25112;DHT22;13092;51.996;4.458;2022-11-20T02:26:34;0.30;99.90
25112;DHT22;13092;51.996;4.458;2022-11-20T02:29:03;0.40;99.90
25112;DHT22;13092;51.996;4.458;2022-11-20T02:31:37;0.30;99.90
25112;DHT22;13092;51.996;4.458;2022-11-20T02:34:05;0.30;99.90
25112;DHT22;13092;51.996;4.458;2022-11-20T02:36:35;0.30;99.90
25112;DHT22;13092;51.996;4.458;2022-11-20T02:39:05;0.30;99.90
25112;DHT22;13092;51.996;4.458;2022-11-20T02:41:35;0.30;99.90
25112;DHT22;13092;51.996;4.458;2022-11-20T02:44:04;0.10;99.90
25112;DHT22;13092;51.996;4.458;2022-11-20T02:46:33;0.10;99.90
25112;DHT22;13092;51.996;4.458;2022-11-20T02:49:02;0.00;99.90
25112;DHT22;13092;51.996;4.458;2022-11-20T02:51:30;-0.10;99.90
25112;DHT22;13092;51.996;4.458;2022-11-20T02:53:59;-0.10;99.90
25112;DHT22;13092;51.996;4.458;2022-11-20T02:56:28;-0.10;99.90
25112;DHT22;13092;51.996;4.458;2022-11-20T02:58:56;-0.10;99.90
25112;DHT22;13092;51.996;4.458;2022-11-20T03:01:24;0.00;99.90
25112;DHT22;13092;51.996;4.458;2022-11-20T03:03:52;0.10;99.90
25112;DHT22;13092;51.996;4.458;2022-11-20T03:06:21;0.10;99.90
25112;DHT22;13092;51.996;4.458;2022-11-20T03:08:49;0.20;99.90
25112;DHT22;13092;51.996;4.458;2022-11-20T03:11:17;0.00;99.90
25112;DHT22;13092;51.996;4.458;2022-11-20T03:13:47;-0.10;99.90
25112;DHT22;13092;51.996;4.458;2022-11-20T03:16:18;0.00;99.90
25112;DHT22;13092;51.996;4.458;2022-11-20T03:18:47;0.00;99.90
25112;DHT22;13092;51.996;4.458;2022-11-20T03:21:15;0.10;99.90
25112;DHT22;13092;51.996;4.458;2022-11-20T03:23:43;0.00;99.90
25112;DHT22;13092;51.996;4.458;2022-11-20T03:26:14;0.00;99.90
25112;DHT22;13092;51.996;4.458;2022-11-20T03:28:47;0.00;99.90
25112;DHT22;13092;51.996;4.458;2022-11-20T03:31:19;0.00;99.90
25112;DHT22;13092;51.996;4.458;2022-11-20T03:33:47;0.00;99.90
25112;DHT22;13092;51.996;4.458;2022-11-20T03:36:16;0.00;99.90
25112;DHT22;13092;51.996;4.458;2022-11-20T03:38:45;0.10;99.90
25112;DHT22;13092;51.996;4.458;2022-11-20T03:41:16;0.10;99.90
25112;DHT22;13092;51.996;4.458;2022-11-20T03:43:47;0.10;99.90
25112;DHT22;13092;51.996;4.458;2022-11-20T03:46:18;0.10;99.90
25112;DHT22;13092;51.996;4.458;2022-11-20T03:48:46;0.10;99.90
25112;DHT22;13092;51.996;4.458;2022-11-20T03:51:19;0.10;99.90
25112;DHT22;13092;51.996;4.458;2022-11-20T03:53:49;0.10;99.90
25112;DHT22;13092;51.996;4.458;2022-11-20T03:56:19;0.10;99.90
25112;DHT22;13092;51.996;4.458;2022-11-20T03:58:48;0.10;99.90
25112;DHT22;13092;51.996;4.458;2022-11-20T04:01:19;0.00;99.90
25112;DHT22;13092;51.996;4.458;2022-11-20T04:03:47;0.00;99.90
25112;DHT22;13092;51.996;4.458;2022-11-20T04:06:17;-0.10;99.90
25112;DHT22;13092;51.996;4.458;2022-11-20T04:08:46;-0.20;99.90
25112;DHT22;13092;51.996;4.458;2022-11-20T04:11:21;-0.10;99.90
25112;DHT22;13092;51.996;4.458;2022-11-20T04:13:51;-0.10;99.90
25112;DHT22;13092;51.996;4.458;2022-11-20T04:16:21;-0.10;99.90
25112;DHT22;13092;51.996;4.458;2022-11-20T04:18:51;-0.10;99.90
25112;DHT22;13092;51.996;4.458;2022-11-20T04:21:20;-0.20;99.90
25112;DHT22;13092;51.996;4.458;2022-11-20T04:23:49;-0.20;99.90
25112;DHT22;13092;51.996;4.458;2022-11-20T04:26:17;-0.20;99.90
25112;DHT22;13092;51.996;4.458;2022-11-20T04:28:45;-0.20;99.90
25112;DHT22;13092;51.996;4.458;2022-11-20T04:31:15;-0.20;99.90
25112;DHT22;13092;51.996;4.458;2022-11-20T04:33:45;-0.10;99.90
25112;DHT22;13092;51.996;4.458;2022-11-20T04:36:15;-0.10;99.90
25112;DHT22;13092;51.996;4.458;2022-11-20T04:38:43;-0.10;99.90
25112;DHT22;13092;51.996;4.458;2022-11-20T04:41:15;-0.10;99.90
25112;DHT22;13092;51.996;4.458;2022-11-20T04:43:47;0.00;99.90
25112;DHT22;13092;51.996;4.458;2022-11-20T04:46:16;0.00;99.90
25112;DHT22;13092;51.996;4.458;2022-11-20T04:48:46;-0.10;99.90
25112;DHT22;13092;51.996;4.458;2022-11-20T04:51:15;0.00;99.90
25112;DHT22;13092;51.996;4.458;2022-11-20T04:53:43;-0.10;99.90
25112;DHT22;13092;51.996;4.458;2022-11-20T04:56:12;-0.10;99.90
25112;DHT22;13092;51.996;4.458;2022-11-20T04:58:40;-0.10;99.90
25112;DHT22;13092;51.996;4.458;2022-11-20T05:01:10;0.00;99.90
25112;DHT22;13092;51.996;4.458;2022-11-20T05:03:39;-0.10;99.90
25112;DHT22;13092;51.996;4.458;2022-11-20T05:06:11;0.00;99.90
25112;DHT22;13092;51.996;4.458;2022-11-20T05:08:40;-0.10;99.90
25112;DHT22;13092;51.996;4.458;2022-11-20T05:11:10;-0.10;99.90
25112;DHT22;13092;51.996;4.458;2022-11-20T05:13:39;0.00;99.90
25112;DHT22;13092;51.996;4.458;2022-11-20T05:16:09;0.00;99.90
25112;DHT22;13092;51.996;4.458;2022-11-20T05:18:38;0.00;99.90
25112;DHT22;13092;51.996;4.458;2022-11-20T05:21:08;0.00;99.90
25112;DHT22;13092;51.996;4.458;2022-11-20T05:23:37;-0.10;99.90
25112;DHT22;13092;51.996;4.458;2022-11-20T05:26:08;-0.10;99.90
25112;DHT22;13092;51.996;4.458;2022-11-20T05:28:36;-0.10;99.90
25112;DHT22;13092;51.996;4.458;2022-11-20T05:31:05;-0.20;99.90
25112;DHT22;13092;51.996;4.458;2022-11-20T05:33:34;-0.20;99.90
25112;DHT22;13092;51.996;4.458;2022-11-20T05:36:03;-0.20;99.90
25112;DHT22;13092;51.996;4.458;2022-11-20T05:38:31;-0.20;99.90
25112;DHT22;13092;51.996;4.458;2022-11-20T05:41:07;-0.10;99.90
25112;DHT22;13092;51.996;4.458;2022-11-20T05:43:37;-0.10;99.90
25112;DHT22;13092;51.996;4.458;2022-11-20T05:46:06;-0.10;99.90
25112;DHT22;13092;51.996;4.458;2022-11-20T05:48:35;-0.10;99.90
25112;DHT22;13092;51.996;4.458;2022-11-20T05:51:05;-0.10;99.90
25112;DHT22;13092;51.996;4.458;2022-11-20T05:53:34;0.10;99.90
25112;DHT22;13092;51.996;4.458;2022-11-20T05:56:04;-0.10;99.90
25112;DHT22;13092;51.996;4.458;2022-11-20T05:58:34;-0.10;99.90
25112;DHT22;13092;51.996;4.458;2022-11-20T06:01:06;-0.20;99.90
25112;DHT22;13092;51.996;4.458;2022-11-20T06:03:35;-0.20;99.90
25112;DHT22;13092;51.996;4.458;2022-11-20T06:06:04;-0.30;99.90
25112;DHT22;13092;51.996;4.458;2022-11-20T06:08:33;-0.30;99.90
25112;DHT22;13092;51.996;4.458;2022-11-20T06:11:04;-0.40;99.90
25112;DHT22;13092;51.996;4.458;2022-11-20T06:13:33;-0.40;99.90
25112;DHT22;13092;51.996;4.458;2022-11-20T06:16:08;-0.30;99.90
25112;DHT22;13092;51.996;4.458;2022-11-20T06:18:36;-0.30;99.90
25112;DHT22;13092;51.996;4.458;2022-11-20T06:21:06;-0.30;99.90
25112;DHT22;13092;51.996;4.458;2022-11-20T06:23:35;-0.30;99.90
25112;DHT22;13092;51.996;4.458;2022-11-20T06:26:05;-0.30;99.90
25112;DHT22;13092;51.996;4.458;2022-11-20T06:28:35;-0.30;99.90
25112;DHT22;13092;51.996;4.458;2022-11-20T06:31:04;-0.30;99.90
25112;DHT22;13092;51.996;4.458;2022-11-20T06:33:32;-0.30;99.90
25112;DHT22;13092;51.996;4.458;2022-11-20T06:36:01;-0.40;99.90
25112;DHT22;13092;51.996;4.458;2022-11-20T06:38:36;-0.30;99.90
25112;DHT22;13092;51.996;4.458;2022-11-20T06:41:04;-0.30;99.90
25112;DHT22;13092;51.996;4.458;2022-11-20T06:43:36;-0.30;99.90
25112;DHT22;13092;51.996;4.458;2022-11-20T06:46:05;-0.20;99.90
25112;DHT22;13092;51.996;4.458;2022-11-20T06:48:33;-0.20;99.90
25112;DHT22;13092;51.996;4.458;2022-11-20T06:51:02;-0.20;99.90
25112;DHT22;13092;51.996;4.458;2022-11-20T06:53:31;-0.10;99.90
25112;DHT22;13092;51.996;4.458;2022-11-20T06:55:59;-0.10;99.90
25112;DHT22;13092;51.996;4.458;2022-11-20T06:58:29;0.00;99.90
25112;DHT22;13092;51.996;4.458;2022-11-20T07:00:59;0.10;99.90
25112;DHT22;13092;51.996;4.458;2022-11-20T07:03:28;0.20;99.90
25112;DHT22;13092;51.996;4.458;2022-11-20T07:05:57;0.30;99.90
25112;DHT22;13092;51.996;4.458;2022-11-20T07:08:26;0.40;99.90
25112;DHT22;13092;51.996;4.458;2022-11-20T07:10:57;0.40;99.90
25112;DHT22;13092;51.996;4.458;2022-11-20T07:13:26;0.40;99.90
25112;DHT22;13092;51.996;4.458;2022-11-20T07:15:54;0.40;99.90
25112;DHT22;13092;51.996;4.458;2022-11-20T07:18:24;0.60;99.90
25112;DHT22;13092;51.996;4.458;2022-11-20T07:20:52;0.60;99.90
25112;DHT22;13092;51.996;4.458;2022-11-20T07:23:21;0.60;99.90
25112;DHT22;13092;51.996;4.458;2022-11-20T07:25:49;0.60;99.90
25112;DHT22;13092;51.996;4.458;2022-11-20T07:28:18;0.60;99.90
25112;DHT22;13092;51.996;4.458;2022-11-20T07:30:50;0.60;99.90
25112;DHT22;13092;51.996;4.458;2022-11-20T07:33:20;0.60;99.90
25112;DHT22;13092;51.996;4.458;2022-11-20T07:35:49;0.60;99.90
25112;DHT22;13092;51.996;4.458;2022-11-20T07:38:18;0.60;99.90
25112;DHT22;13092;51.996;4.458;2022-11-20T07:40:54;0.70;99.90
25112;DHT22;13092;51.996;4.458;2022-11-20T07:43:24;0.80;99.90
25112;DHT22;13092;51.996;4.458;2022-11-20T07:45:55;0.80;99.90
25112;DHT22;13092;51.996;4.458;2022-11-20T07:48:24;0.80;99.90
25112;DHT22;13092;51.996;4.458;2022-11-20T07:50:55;0.80;99.90
25112;DHT22;13092;51.996;4.458;2022-11-20T07:53:24;0.80;99.90
25112;DHT22;13092;51.996;4.458;2022-11-20T07:55:53;0.90;99.90
25112;DHT22;13092;51.996;4.458;2022-11-20T07:58:24;0.90;99.90
25112;DHT22;13092;51.996;4.458;2022-11-20T08:01:04;1.00;99.90
25112;DHT22;13092;51.996;4.458;2022-11-20T08:03:33;1.00;99.90
25112;DHT22;13092;51.996;4.458;2022-11-20T08:06:06;1.00;99.90
25112;DHT22;13092;51.996;4.458;2022-11-20T08:08:35;1.00;99.90
25112;DHT22;13092;51.996;4.458;2022-11-20T08:11:09;1.10;99.90
25112;DHT22;13092;51.996;4.458;2022-11-20T08:13:51;1.10;99.90
25112;DHT22;13092;51.996;4.458;2022-11-20T08:16:36;1.20;99.90
25112;DHT22;13092;51.996;4.458;2022-11-20T08:19:05;1.20;99.90
25112;DHT22;13092;51.996;4.458;2022-11-20T08:21:35;1.30;99.90
25112;DHT22;13092;51.996;4.458;2022-11-20T08:24:05;1.30;99.90
25112;DHT22;13092;51.996;4.458;2022-11-20T08:26:33;1.40;99.90
25112;DHT22;13092;51.996;4.458;2022-11-20T08:29:02;1.60;99.90
25112;DHT22;13092;51.996;4.458;2022-11-20T08:31:30;1.50;99.90
25112;DHT22;13092;51.996;4.458;2022-11-20T08:34:12;1.50;99.90
25112;DHT22;13092;51.996;4.458;2022-11-20T08:36:46;1.30;99.90
25112;DHT22;13092;51.996;4.458;2022-11-20T08:39:14;1.80;99.90
25112;DHT22;13092;51.996;4.458;2022-11-20T08:41:42;1.70;99.90
25112;DHT22;13092;51.996;4.458;2022-11-20T08:44:10;1.70;99.90
25112;DHT22;13092;51.996;4.458;2022-11-20T08:46:41;1.70;99.90
25112;DHT22;13092;51.996;4.458;2022-11-20T08:49:24;1.80;99.90
25112;DHT22;13092;51.996;4.458;2022-11-20T08:51:53;1.90;99.90
25112;DHT22;13092;51.996;4.458;2022-11-20T08:54:22;1.90;99.90
25112;DHT22;13092;51.996;4.458;2022-11-20T08:56:50;1.90;99.90
25112;DHT22;13092;51.996;4.458;2022-11-20T08:59:18;1.90;99.90
25112;DHT22;13092;51.996;4.458;2022-11-20T09:02:06;2.20;99.90
25112;DHT22;13092;51.996;4.458;2022-11-20T09:04:34;2.10;99.90
25112;DHT22;13092;51.996;4.458;2022-11-20T09:07:03;2.10;99.90
25112;DHT22;13092;51.996;4.458;2022-11-20T09:09:31;2.30;99.90
25112;DHT22;13092;51.996;4.458;2022-11-20T09:12:00;2.20;99.90
25112;DHT22;13092;51.996;4.458;2022-11-20T09:14:28;2.20;99.90
25112;DHT22;13092;51.996;4.458;2022-11-20T09:16:56;2.30;99.90
25112;DHT22;13092;51.996;4.458;2022-11-20T09:19:25;2.30;99.90
25112;DHT22;13092;51.996;4.458;2022-11-20T09:22:03;2.30;99.90
25112;DHT22;13092;51.996;4.458;2022-11-20T09:24:31;2.40;99.90
25112;DHT22;13092;51.996;4.458;2022-11-20T09:27:02;2.40;99.90
25112;DHT22;13092;51.996;4.458;2022-11-20T09:29:30;2.40;99.90
25112;DHT22;13092;51.996;4.458;2022-11-20T09:31:58;2.50;99.90
25112;DHT22;13092;51.996;4.458;2022-11-20T09:34:26;2.60;99.90
25112;DHT22;13092;51.996;4.458;2022-11-20T09:36:54;2.70;99.90
25112;DHT22;13092;51.996;4.458;2022-11-20T09:39:23;2.70;99.90
25112;DHT22;13092;51.996;4.458;2022-11-20T09:42:14;2.70;99.90
25112;DHT22;13092;51.996;4.458;2022-11-20T09:45:01;2.80;99.90
25112;DHT22;13092;51.996;4.458;2022-11-20T09:47:43;2.80;99.90
25112;DHT22;13092;51.996;4.458;2022-11-20T09:50:25;2.90;99.90
25112;DHT22;13092;51.996;4.458;2022-11-20T09:53:04;3.00;99.90
25112;DHT22;13092;51.996;4.458;2022-11-20T09:55:38;3.10;99.90
25112;DHT22;13092;51.996;4.458;2022-11-20T09:58:12;3.00;99.90
25112;DHT22;13092;51.996;4.458;2022-11-20T10:00:42;3.10;99.90
25112;DHT22;13092;51.996;4.458;2022-11-20T10:03:14;3.10;99.90
25112;DHT22;13092;51.996;4.458;2022-11-20T10:05:46;3.10;99.90
25112;DHT22;13092;51.996;4.458;2022-11-20T10:08:19;3.20;99.90
25112;DHT22;13092;51.996;4.458;2022-11-20T10:10:54;3.20;99.90
25112;DHT22;13092;51.996;4.458;2022-11-20T10:13:34;3.20;99.90
25112;DHT22;13092;51.996;4.458;2022-11-20T10:16:15;3.30;99.90
25112;DHT22;13092;51.996;4.458;2022-11-20T10:18:57;3.30;99.90
25112;DHT22;13092;51.996;4.458;2022-11-20T10:21:38;3.30;99.90
25112;DHT22;13092;51.996;4.458;2022-11-20T10:24:24;3.30;99.90
25112;DHT22;13092;51.996;4.458;2022-11-20T10:27:05;3.30;99.90
25112;DHT22;13092;51.996;4.458;2022-11-20T10:29:39;3.30;99.90
25112;DHT22;13092;51.996;4.458;2022-11-20T10:32:14;3.40;99.90
25112;DHT22;13092;51.996;4.458;2022-11-20T10:34:48;3.40;99.90
25112;DHT22;13092;51.996;4.458;2022-11-20T10:37:21;3.50;99.90
25112;DHT22;13092;51.996;4.458;2022-11-20T10:39:54;3.50;99.90
25112;DHT22;13092;51.996;4.458;2022-11-20T10:42:30;3.60;99.90
25112;DHT22;13092;51.996;4.458;2022-11-20T10:45:04;3.60;99.90
25112;DHT22;13092;51.996;4.458;2022-11-20T10:47:39;3.70;99.90
25112;DHT22;13092;51.996;4.458;2022-11-20T10:50:11;3.80;99.90
25112;DHT22;13092;51.996;4.458;2022-11-20T10:52:56;3.80;99.90
25112;DHT22;13092;51.996;4.458;2022-11-20T10:55:38;3.90;99.90
25112;DHT22;13092;51.996;4.458;2022-11-20T10:58:13;3.90;99.90
25112;DHT22;13092;51.996;4.458;2022-11-20T11:00:42;4.00;99.90
25112;DHT22;13092;51.996;4.458;2022-11-20T11:03:22;4.00;99.90
25112;DHT22;13092;51.996;4.458;2022-11-20T11:05:54;4.00;99.90
25112;DHT22;13092;51.996;4.458;2022-11-20T11:08:27;4.10;99.90
25112;DHT22;13092;51.996;4.458;2022-11-20T11:10:59;4.10;99.90
25112;DHT22;13092;51.996;4.458;2022-11-20T11:13:30;4.10;99.90
25112;DHT22;13092;51.996;4.458;2022-11-20T11:15:58;4.20;99.90
25112;DHT22;13092;51.996;4.458;2022-11-20T11:18:28;4.10;99.90
25112;DHT22;13092;51.996;4.458;2022-11-20T11:20:57;4.20;99.90
25112;DHT22;13092;51.996;4.458;2022-11-20T11:23:34;4.20;99.90
25112;DHT22;13092;51.996;4.458;2022-11-20T11:26:05;4.30;99.90
25112;DHT22;13092;51.996;4.458;2022-11-20T11:28:35;4.40;99.90
25112;DHT22;13092;51.996;4.458;2022-11-20T11:31:03;4.40;99.90
25112;DHT22;13092;51.996;4.458;2022-11-20T11:33:32;4.40;99.90
25112;DHT22;13092;51.996;4.458;2022-11-20T11:36:03;4.40;99.90
25112;DHT22;13092;51.996;4.458;2022-11-20T11:38:35;4.40;99.90
25112;DHT22;13092;51.996;4.458;2022-11-20T11:41:04;4.50;99.90
25112;DHT22;13092;51.996;4.458;2022-11-20T11:43:36;4.40;99.90
25112;DHT22;13092;51.996;4.458;2022-11-20T11:46:31;4.40;99.90
25112;DHT22;13092;51.996;4.458;2022-11-20T11:49:01;4.40;99.90
25112;DHT22;13092;51.996;4.458;2022-11-20T11:51:35;4.40;99.90
25112;DHT22;13092;51.996;4.458;2022-11-20T11:54:13;4.50;99.90
25112;DHT22;13092;51.996;4.458;2022-11-20T11:56:42;4.60;99.90
25112;DHT22;13092;51.996;4.458;2022-11-20T11:59:16;4.60;99.90
25112;DHT22;13092;51.996;4.458;2022-11-20T12:01:55;4.70;99.90
25112;DHT22;13092;51.996;4.458;2022-11-20T12:04:36;4.70;99.90
25112;DHT22;13092;51.996;4.458;2022-11-20T12:07:10;4.80;99.90
25112;DHT22;13092;51.996;4.458;2022-11-20T12:10:00;4.90;99.90
25112;DHT22;13092;51.996;4.458;2022-11-20T12:12:33;4.80;99.90
25112;DHT22;13092;51.996;4.458;2022-11-20T12:15:10;4.90;99.90
25112;DHT22;13092;51.996;4.458;2022-11-20T12:17:41;4.90;99.90
25112;DHT22;13092;51.996;4.458;2022-11-20T12:20:13;4.90;99.90
25112;DHT22;13092;51.996;4.458;2022-11-20T12:22:45;5.00;99.90
25112;DHT22;13092;51.996;4.458;2022-11-20T12:25:21;5.00;99.90
25112;DHT22;13092;51.996;4.458;2022-11-20T12:28:12;5.10;99.90
25112;DHT22;13092;51.996;4.458;2022-11-20T12:30:56;5.10;99.90
25112;DHT22;13092;51.996;4.458;2022-11-20T12:33:53;5.10;99.90
25112;DHT22;13092;51.996;4.458;2022-11-20T12:36:29;5.10;99.90
25112;DHT22;13092;51.996;4.458;2022-11-20T12:39:07;5.00;99.90
25112;DHT22;13092;51.996;4.458;2022-11-20T12:41:54;5.00;99.90
25112;DHT22;13092;51.996;4.458;2022-11-20T12:45:02;5.00;99.90
25112;DHT22;13092;51.996;4.458;2022-11-20T12:47:49;5.00;99.90
25112;DHT22;13092;51.996;4.458;2022-11-20T12:50:31;5.00;99.90
25112;DHT22;13092;51.996;4.458;2022-11-20T12:53:27;5.10;99.90
25112;DHT22;13092;51.996;4.458;2022-11-20T12:56:02;5.10;99.90
25112;DHT22;13092;51.996;4.458;2022-11-20T12:58:41;5.10;99.90
25112;DHT22;13092;51.996;4.458;2022-11-20T13:01:21;5.20;99.90
25112;DHT22;13092;51.996;4.458;2022-11-20T13:04:16;5.20;99.90
25112;DHT22;13092;51.996;4.458;2022-11-20T13:06:46;5.30;99.90
25112;DHT22;13092;51.996;4.458;2022-11-20T13:09:18;5.30;99.90
25112;DHT22;13092;51.996;4.458;2022-11-20T13:11:57;5.30;99.90
25112;DHT22;13092;51.996;4.458;2022-11-20T13:14:33;5.50;99.90
25112;DHT22;13092;51.996;4.458;2022-11-20T13:17:09;5.30;99.90
25112;DHT22;13092;51.996;4.458;2022-11-20T13:19:40;5.30;99.90
25112;DHT22;13092;51.996;4.458;2022-11-20T13:22:08;5.30;99.90
25112;DHT22;13092;51.996;4.458;2022-11-20T13:24:37;5.30;99.90
25112;DHT22;13092;51.996;4.458;2022-11-20T13:27:18;5.30;99.90
25112;DHT22;13092;51.996;4.458;2022-11-20T13:29:59;5.30;99.90
25112;DHT22;13092;51.996;4.458;2022-11-20T13:32:28;5.30;99.90
25112;DHT22;13092;51.996;4.458;2022-11-20T13:35:02;5.30;99.90
25112;DHT22;13092;51.996;4.458;2022-11-20T13:37:33;5.30;99.90
25112;DHT22;13092;51.996;4.458;2022-11-20T13:40:11;5.30;99.90
25112;DHT22;13092;51.996;4.458;2022-11-20T13:42:43;5.30;99.90
25112;DHT22;13092;51.996;4.458;2022-11-20T13:45:23;5.30;99.90
25112;DHT22;13092;51.996;4.458;2022-11-20T13:47:52;5.10;99.90
25112;DHT22;13092;51.996;4.458;2022-11-20T13:50:44;5.30;99.90
25112;DHT22;13092;51.996;4.458;2022-11-20T13:53:26;5.20;99.90
25112;DHT22;13092;51.996;4.458;2022-11-20T13:56:01;5.20;99.90
25112;DHT22;13092;51.996;4.458;2022-11-20T13:58:43;5.10;99.90
25112;DHT22;13092;51.996;4.458;2022-11-20T14:01:16;5.10;99.90
25112;DHT22;13092;51.996;4.458;2022-11-20T14:03:45;5.10;99.90
25112;DHT22;13092;51.996;4.458;2022-11-20T14:06:40;5.00;99.90
25112;DHT22;13092;51.996;4.458;2022-11-20T14:09:12;5.00;99.90
25112;DHT22;13092;51.996;4.458;2022-11-20T14:11:46;5.00;99.90
25112;DHT22;13092;51.996;4.458;2022-11-20T14:14:16;4.90;99.90
25112;DHT22;13092;51.996;4.458;2022-11-20T14:16:46;4.90;99.90
25112;DHT22;13092;51.996;4.458;2022-11-20T14:19:26;4.80;99.90
25112;DHT22;13092;51.996;4.458;2022-11-20T14:22:15;4.80;99.90
25112;DHT22;13092;51.996;4.458;2022-11-20T14:24:45;4.80;99.90
25112;DHT22;13092;51.996;4.458;2022-11-20T14:27:14;4.90;99.90
25112;DHT22;13092;51.996;4.458;2022-11-20T14:29:44;4.90;99.90
25112;DHT22;13092;51.996;4.458;2022-11-20T14:32:15;4.90;99.90
25112;DHT22;13092;51.996;4.458;2022-11-20T14:34:46;4.90;99.90
25112;DHT22;13092;51.996;4.458;2022-11-20T14:37:21;4.90;99.90
25112;DHT22;13092;51.996;4.458;2022-11-20T14:39:52;4.90;99.90
25112;DHT22;13092;51.996;4.458;2022-11-20T14:42:23;4.90;99.90
25112;DHT22;13092;51.996;4.458;2022-11-20T14:44:54;4.90;99.90
25112;DHT22;13092;51.996;4.458;2022-11-20T14:47:25;4.90;99.90
25112;DHT22;13092;51.996;4.458;2022-11-20T14:49:55;4.90;99.90
25112;DHT22;13092;51.996;4.458;2022-11-20T14:52:27;4.90;99.90
25112;DHT22;13092;51.996;4.458;2022-11-20T14:54:56;4.90;99.90
25112;DHT22;13092;51.996;4.458;2022-11-20T14:57:27;5.00;99.90
25112;DHT22;13092;51.996;4.458;2022-11-20T15:00:07;5.00;99.90
25112;DHT22;13092;51.996;4.458;2022-11-20T15:02:39;5.00;99.90
25112;DHT22;13092;51.996;4.458;2022-11-20T15:05:08;5.00;99.90
25112;DHT22;13092;51.996;4.458;2022-11-20T15:07:39;5.00;99.90
25112;DHT22;13092;51.996;4.458;2022-11-20T15:10:19;5.00;99.90
25112;DHT22;13092;51.996;4.458;2022-11-20T15:12:49;5.00;99.90
25112;DHT22;13092;51.996;4.458;2022-11-20T15:15:21;5.00;99.90
25112;DHT22;13092;51.996;4.458;2022-11-20T15:17:52;5.10;99.90
25112;DHT22;13092;51.996;4.458;2022-11-20T15:20:24;5.10;99.90
25112;DHT22;13092;51.996;4.458;2022-11-20T15:22:54;5.10;99.90
25112;DHT22;13092;51.996;4.458;2022-11-20T15:25:23;5.10;99.90
25112;DHT22;13092;51.996;4.458;2022-11-20T15:27:54;5.20;99.90
25112;DHT22;13092;51.996;4.458;2022-11-20T15:30:23;5.20;99.90
25112;DHT22;13092;51.996;4.458;2022-11-20T15:32:51;5.20;99.90
25112;DHT22;13092;51.996;4.458;2022-11-20T15:35:19;5.20;99.90
25112;DHT22;13092;51.996;4.458;2022-11-20T15:37:47;5.20;99.90
25112;DHT22;13092;51.996;4.458;2022-11-20T15:40:17;5.20;99.90
25112;DHT22;13092;51.996;4.458;2022-11-20T15:42:45;5.20;99.90
25112;DHT22;13092;51.996;4.458;2022-11-20T15:45:28;5.20;99.90
25112;DHT22;13092;51.996;4.458;2022-11-20T15:47:57;5.10;99.90
25112;DHT22;13092;51.996;4.458;2022-11-20T15:50:29;5.10;99.90
25112;DHT22;13092;51.996;4.458;2022-11-20T15:52:57;5.20;99.90
25112;DHT22;13092;51.996;4.458;2022-11-20T15:55:27;5.10;99.90
25112;DHT22;13092;51.996;4.458;2022-11-20T15:57:55;5.10;99.90
25112;DHT22;13092;51.996;4.458;2022-11-20T16:00:23;5.00;99.90
25112;DHT22;13092;51.996;4.458;2022-11-20T16:02:51;4.90;99.90
25112;DHT22;13092;51.996;4.458;2022-11-20T16:05:19;4.90;99.90
25112;DHT22;13092;51.996;4.458;2022-11-20T16:07:50;4.90;99.90
25112;DHT22;13092;51.996;4.458;2022-11-20T16:10:18;4.80;99.90
25112;DHT22;13092;51.996;4.458;2022-11-20T16:12:48;4.80;99.90